BHE537 ZBMZ-ZSNJ
Flight info
| Callsign | BHE537 |
|---|---|
| Flight time | N/A |
| Altitude | 37100 |
| Route | KAG81D KAGAK A345 BIDIB A588 UDETI W202 DOBGA V68 TEKAM W172 FD W174 XDX DCT 352645N1194465E 3516N11934E 3511N11928E 3505N11923E 3503N11921E 3348N11860E DCT ATVAD DCT OF OF71F |
| Aircraft | A20N/M-SDE2E3FGHIRWXY/LB1 |
Departure
| Time | N/A |
|---|---|
| Airport | Manzhouli Xijiao Airport (ZBMZ) |
Arrival
| Time | 2026-04-23 08:33 |
|---|---|
| Airport | Nanjing Lukou International Airport (ZSNJ) |
| Time | Latitude | Longitude | Altitude | Speed | Heading |
|---|---|---|---|---|---|
| 2026-04-23 07:15 | 38.55419 | 121.81142 | 37042 ft | 415 kts | 244° |
| 2026-04-23 07:16 | 38.54120 | 121.77869 | 37043 ft | 415 kts | 244° |
| 2026-04-23 07:16 | 38.51494 | 121.71271 | 37047 ft | 416 kts | 244° |
| 2026-04-23 07:17 | 38.48878 | 121.64712 | 37050 ft | 416 kts | 244° |
| 2026-04-23 07:17 | 38.46264 | 121.58175 | 37055 ft | 416 kts | 244° |
| 2026-04-23 07:18 | 38.43353 | 121.51842 | 37045 ft | 418 kts | 238° |
| 2026-04-23 07:18 | 38.39716 | 121.46062 | 37047 ft | 420 kts | 230° |
| 2026-04-23 07:19 | 38.35404 | 121.40972 | 37043 ft | 424 kts | 222° |
| 2026-04-23 07:19 | 38.30596 | 121.36619 | 37050 ft | 427 kts | 219° |
| 2026-04-23 07:20 | 38.25711 | 121.32390 | 37041 ft | 427 kts | 218° |
| 2026-04-23 07:20 | 38.20794 | 121.28163 | 37048 ft | 427 kts | 218° |
| 2026-04-23 07:21 | 38.15883 | 121.23956 | 37041 ft | 426 kts | 218° |
| 2026-04-23 07:21 | 38.10970 | 121.19757 | 37042 ft | 427 kts | 218° |
| 2026-04-23 07:22 | 38.06055 | 121.15564 | 37046 ft | 426 kts | 218° |
| 2026-04-23 07:22 | 38.01135 | 121.11372 | 37043 ft | 426 kts | 218° |
| 2026-04-23 07:23 | 37.96241 | 121.07210 | 37045 ft | 426 kts | 218° |
| 2026-04-23 07:23 | 37.91313 | 121.03026 | 37046 ft | 426 kts | 218° |
| 2026-04-23 07:24 | 37.86362 | 120.98827 | 37047 ft | 426 kts | 218° |
| 2026-04-23 07:24 | 37.81433 | 120.94655 | 37045 ft | 426 kts | 218° |
| 2026-04-23 07:25 | 37.76537 | 120.90521 | 37041 ft | 426 kts | 218° |
| 2026-04-23 07:25 | 37.71622 | 120.86375 | 37037 ft | 426 kts | 218° |
| 2026-04-23 07:26 | 37.66684 | 120.82221 | 37030 ft | 425 kts | 217° |
| 2026-04-23 07:26 | 37.61514 | 120.78561 | 37027 ft | 429 kts | 210° |
| 2026-04-23 07:27 | 37.55947 | 120.75751 | 37027 ft | 434 kts | 203° |
| 2026-04-23 07:27 | 37.50028 | 120.73856 | 37026 ft | 439 kts | 196° |
| 2026-04-23 07:28 | 37.43993 | 120.72674 | 37027 ft | 440 kts | 194° |
| 2026-04-23 07:28 | 37.37941 | 120.71531 | 37029 ft | 441 kts | 194° |
| 2026-04-23 07:29 | 37.31891 | 120.70392 | 37031 ft | 440 kts | 194° |
| 2026-04-23 07:29 | 37.25845 | 120.69256 | 37028 ft | 440 kts | 194° |
| 2026-04-23 07:30 | 37.19799 | 120.68122 | 37026 ft | 439 kts | 194° |
| 2026-04-23 07:30 | 37.13774 | 120.66994 | 37027 ft | 439 kts | 194° |
| 2026-04-23 07:31 | 37.07735 | 120.65865 | 37028 ft | 438 kts | 194° |
| 2026-04-23 07:31 | 37.01733 | 120.64747 | 37028 ft | 438 kts | 194° |
| 2026-04-23 07:32 | 36.95736 | 120.63557 | 37025 ft | 435 kts | 197° |
| 2026-04-23 07:32 | 36.89887 | 120.61735 | 37028 ft | 431 kts | 203° |
| 2026-04-23 07:33 | 36.84233 | 120.59360 | 37033 ft | 429 kts | 205° |
| 2026-04-23 07:33 | 36.78600 | 120.56967 | 37036 ft | 429 kts | 205° |
| 2026-04-23 07:34 | 36.72968 | 120.54575 | 37037 ft | 428 kts | 205° |
| 2026-04-23 07:34 | 36.67348 | 120.52188 | 37036 ft | 427 kts | 205° |
| 2026-04-23 07:35 | 36.61736 | 120.49808 | 37035 ft | 426 kts | 205° |
| 2026-04-23 07:35 | 36.56099 | 120.47440 | 37034 ft | 427 kts | 204° |
| 2026-04-23 07:36 | 36.50442 | 120.45252 | 37034 ft | 428 kts | 203° |
| 2026-04-23 07:36 | 36.44737 | 120.43070 | 37035 ft | 428 kts | 204° |
| 2026-04-23 07:37 | 36.39090 | 120.40900 | 37035 ft | 427 kts | 204° |
| 2026-04-23 07:37 | 36.33411 | 120.38718 | 37031 ft | 427 kts | 204° |
| 2026-04-23 07:38 | 36.27673 | 120.36686 | 37031 ft | 429 kts | 200° |
| 2026-04-23 07:38 | 36.21837 | 120.35149 | 37030 ft | 430 kts | 199° |
| 2026-04-23 07:39 | 36.15974 | 120.33630 | 37032 ft | 430 kts | 198° |
| 2026-04-23 07:39 | 36.10135 | 120.32122 | 37029 ft | 430 kts | 198° |
| 2026-04-23 07:40 | 36.04327 | 120.30417 | 37027 ft | 425 kts | 204° |
| 2026-04-23 07:40 | 35.98885 | 120.27832 | 37029 ft | 418 kts | 211° |
| 2026-04-23 07:41 | 35.93867 | 120.24382 | 37032 ft | 412 kts | 218° |
| 2026-04-23 07:41 | 35.89307 | 120.20144 | 37038 ft | 407 kts | 224° |
| 2026-04-23 07:42 | 35.84955 | 120.15696 | 37043 ft | 407 kts | 224° |
| 2026-04-23 07:42 | 35.80606 | 120.11247 | 37039 ft | 407 kts | 224° |
| 2026-04-23 07:43 | 35.76270 | 120.06809 | 37040 ft | 407 kts | 224° |
| 2026-04-23 07:43 | 35.71927 | 120.02369 | 37040 ft | 408 kts | 224° |
| 2026-04-23 07:44 | 35.67575 | 119.97926 | 37041 ft | 407 kts | 224° |
| 2026-04-23 07:44 | 35.63213 | 119.93479 | 37040 ft | 407 kts | 224° |
| 2026-04-23 07:45 | 35.58861 | 119.89048 | 37045 ft | 406 kts | 224° |
| 2026-04-23 07:45 | 35.54540 | 119.84656 | 37040 ft | 405 kts | 224° |
| 2026-04-23 07:46 | 35.50182 | 119.80232 | 37036 ft | 405 kts | 224° |
| 2026-04-23 07:46 | 35.45855 | 119.75848 | 37041 ft | 406 kts | 224° |
| 2026-04-23 07:47 | 35.41488 | 119.71435 | 37043 ft | 405 kts | 224° |
| 2026-04-23 07:47 | 35.37112 | 119.67057 | 37046 ft | 405 kts | 224° |
| 2026-04-23 07:48 | 35.32772 | 119.62721 | 37047 ft | 404 kts | 224° |
| 2026-04-23 07:48 | 35.28407 | 119.58360 | 37046 ft | 404 kts | 225° |
| 2026-04-23 07:49 | 35.24297 | 119.53753 | 37049 ft | 401 kts | 229° |
| 2026-04-23 07:49 | 35.20287 | 119.49044 | 37047 ft | 402 kts | 226° |
| 2026-04-23 07:50 | 35.15941 | 119.44720 | 37049 ft | 406 kts | 222° |
| 2026-04-23 07:50 | 35.11269 | 119.40758 | 37048 ft | 407 kts | 220° |
| 2026-04-23 07:51 | 35.06624 | 119.36907 | 37048 ft | 409 kts | 217° |
| 2026-04-23 07:51 | 35.01338 | 119.34059 | 37052 ft | 420 kts | 204° |
| 2026-04-23 07:52 | 34.95641 | 119.32319 | 37051 ft | 424 kts | 201° |
| 2026-04-23 07:52 | 34.89898 | 119.30673 | 37054 ft | 424 kts | 201° |
| 2026-04-23 07:53 | 34.84153 | 119.29042 | 37051 ft | 423 kts | 201° |
| 2026-04-23 07:53 | 34.78403 | 119.27415 | 37053 ft | 424 kts | 201° |
| 2026-04-23 07:54 | 34.72644 | 119.25788 | 37054 ft | 423 kts | 201° |
| 2026-04-23 07:54 | 34.66930 | 119.24178 | 37055 ft | 421 kts | 201° |
| 2026-04-23 07:55 | 34.61242 | 119.22578 | 37053 ft | 421 kts | 201° |
| 2026-04-23 07:55 | 34.55508 | 119.20964 | 37055 ft | 420 kts | 201° |
| 2026-04-23 07:56 | 34.49838 | 119.19371 | 37054 ft | 421 kts | 201° |
| 2026-04-23 07:56 | 34.44104 | 119.17765 | 37055 ft | 420 kts | 201° |
| 2026-04-23 07:57 | 34.38436 | 119.16180 | 37051 ft | 420 kts | 201° |
| 2026-04-23 07:57 | 34.32767 | 119.14597 | 37051 ft | 419 kts | 201° |
| 2026-04-23 07:58 | 34.27060 | 119.13001 | 37047 ft | 419 kts | 201° |
| 2026-04-23 07:58 | 34.21399 | 119.11427 | 37047 ft | 418 kts | 201° |
| 2026-04-23 07:59 | 34.15739 | 119.09849 | 37057 ft | 418 kts | 201° |
| 2026-04-23 07:59 | 34.10063 | 119.08273 | 37045 ft | 417 kts | 202° |
| 2026-04-23 08:00 | 34.04433 | 119.06712 | 37055 ft | 416 kts | 202° |
| 2026-04-23 08:00 | 33.98784 | 119.05144 | 37071 ft | 416 kts | 202° |
| 2026-04-23 08:01 | 33.93150 | 119.03587 | 37073 ft | 416 kts | 202° |
| 2026-04-23 08:01 | 33.87455 | 119.02014 | 37071 ft | 416 kts | 202° |
| 2026-04-23 08:02 | 33.81834 | 119.00462 | 37073 ft | 416 kts | 202° |
| 2026-04-23 08:02 | 33.76197 | 118.98865 | 37071 ft | 414 kts | 202° |
| 2026-04-23 08:03 | 33.70622 | 118.97234 | 37071 ft | 415 kts | 202° |
| 2026-04-23 08:03 | 33.65021 | 118.95604 | 37078 ft | 414 kts | 203° |
| 2026-04-23 08:04 | 33.59401 | 118.93973 | 37072 ft | 413 kts | 203° |
| 2026-04-23 08:04 | 33.53841 | 118.92364 | 37078 ft | 413 kts | 202° |
| 2026-04-23 08:05 | 33.48232 | 118.90743 | 37082 ft | 413 kts | 203° |
| 2026-04-23 08:05 | 33.42665 | 118.89140 | 37073 ft | 412 kts | 203° |
| 2026-04-23 08:06 | 33.37115 | 118.87543 | 37075 ft | 410 kts | 203° |
| 2026-04-23 08:06 | 33.31574 | 118.85923 | 37073 ft | 409 kts | 205° |
| 2026-04-23 08:07 | 33.26196 | 118.83845 | 36754 ft | 401 kts | 210° |
| 2026-04-23 08:07 | 33.23576 | 118.82678 | 36466 ft | 398 kts | 210° |
| 2026-04-23 08:07 | 33.20995 | 118.81534 | 36191 ft | 396 kts | 210° |
| 2026-04-23 08:07 | 33.18424 | 118.80395 | 35908 ft | 393 kts | 210° |
| 2026-04-23 08:08 | 33.15859 | 118.79256 | 35627 ft | 393 kts | 210° |
| 2026-04-23 08:08 | 33.13322 | 118.78127 | 35221 ft | 393 kts | 210° |
| 2026-04-23 08:08 | 33.10732 | 118.76978 | 34648 ft | 394 kts | 210° |
| 2026-04-23 08:08 | 33.08184 | 118.75847 | 33967 ft | 396 kts | 210° |
| 2026-04-23 08:09 | 33.05611 | 118.74701 | 33132 ft | 398 kts | 211° |
| 2026-04-23 08:09 | 33.02999 | 118.73537 | 32262 ft | 399 kts | 210° |
| 2026-04-23 08:09 | 33.00409 | 118.72385 | 31406 ft | 400 kts | 210° |
| 2026-04-23 08:09 | 32.97796 | 118.71229 | 30522 ft | 401 kts | 210° |
| 2026-04-23 08:10 | 32.95207 | 118.70084 | 29842 ft | 397 kts | 210° |
| 2026-04-23 08:10 | 32.92634 | 118.68951 | 29317 ft | 390 kts | 210° |
| 2026-04-23 08:10 | 32.87616 | 118.66734 | 28299 ft | 380 kts | 209° |
| 2026-04-23 08:11 | 32.85180 | 118.65657 | 27788 ft | 377 kts | 209° |
| 2026-04-23 08:11 | 32.82710 | 118.64567 | 27270 ft | 374 kts | 209° |
| 2026-04-23 08:11 | 32.80280 | 118.63494 | 26738 ft | 372 kts | 209° |
| 2026-04-23 08:11 | 32.77875 | 118.62435 | 26188 ft | 370 kts | 208° |
| 2026-04-23 08:12 | 32.75474 | 118.61375 | 25650 ft | 369 kts | 208° |
| 2026-04-23 08:12 | 32.73078 | 118.60319 | 25121 ft | 368 kts | 208° |
| 2026-04-23 08:12 | 32.70679 | 118.59263 | 24566 ft | 367 kts | 207° |
| 2026-04-23 08:12 | 32.68279 | 118.58276 | 24029 ft | 368 kts | 205° |
| 2026-04-23 08:13 | 32.65787 | 118.57427 | 23490 ft | 369 kts | 202° |
| 2026-04-23 08:13 | 32.63291 | 118.56742 | 22981 ft | 369 kts | 199° |
| 2026-04-23 08:13 | 32.60799 | 118.56090 | 22460 ft | 369 kts | 199° |
| 2026-04-23 08:13 | 32.58292 | 118.55440 | 21928 ft | 368 kts | 199° |
| 2026-04-23 08:14 | 32.55805 | 118.54793 | 21398 ft | 367 kts | 199° |
| 2026-04-23 08:14 | 32.53296 | 118.54144 | 20861 ft | 367 kts | 197° |
| 2026-04-23 08:14 | 32.50760 | 118.53745 | 20325 ft | 372 kts | 189° |
| 2026-04-23 08:14 | 32.48182 | 118.53783 | 19806 ft | 377 kts | 181° |
| 2026-04-23 08:15 | 32.45551 | 118.54233 | 19275 ft | 379 kts | 175° |
| 2026-04-23 08:15 | 32.42984 | 118.54803 | 18755 ft | 379 kts | 174° |
| 2026-04-23 08:15 | 32.40380 | 118.55402 | 18240 ft | 378 kts | 174° |
| 2026-04-23 08:15 | 32.37816 | 118.55991 | 17722 ft | 377 kts | 173° |
| 2026-04-23 08:16 | 32.35261 | 118.56574 | 17200 ft | 376 kts | 173° |
| 2026-04-23 08:16 | 32.32677 | 118.57159 | 16675 ft | 375 kts | 173° |
| 2026-04-23 08:16 | 32.30117 | 118.57737 | 16151 ft | 374 kts | 173° |
| 2026-04-23 08:16 | 32.27586 | 118.58305 | 15625 ft | 373 kts | 172° |
| 2026-04-23 08:17 | 32.25044 | 118.58878 | 15111 ft | 372 kts | 172° |
| 2026-04-23 08:17 | 32.22478 | 118.59456 | 14583 ft | 371 kts | 172° |
| 2026-04-23 08:17 | 32.19961 | 118.60020 | 14060 ft | 370 kts | 172° |
| 2026-04-23 08:17 | 32.17450 | 118.60582 | 13549 ft | 369 kts | 171° |
| 2026-04-23 08:18 | 32.14930 | 118.61144 | 13043 ft | 367 kts | 171° |
| 2026-04-23 08:18 | 32.12402 | 118.61704 | 12524 ft | 366 kts | 170° |
| 2026-04-23 08:18 | 32.09921 | 118.62247 | 12005 ft | 364 kts | 169° |
| 2026-04-23 08:18 | 32.07435 | 118.62789 | 11495 ft | 362 kts | 169° |
| 2026-04-23 08:19 | 32.04968 | 118.63328 | 10981 ft | 360 kts | 168° |
| 2026-04-23 08:19 | 32.02522 | 118.63864 | 10601 ft | 353 kts | 168° |
| 2026-04-23 08:19 | 32.00140 | 118.64386 | 10383 ft | 341 kts | 167° |
| 2026-04-23 08:19 | 31.97840 | 118.64894 | 10228 ft | 328 kts | 167° |
| 2026-04-23 08:20 | 31.95645 | 118.65379 | 10062 ft | 315 kts | 167° |
| 2026-04-23 08:20 | 31.93509 | 118.65848 | 9834 ft | 307 kts | 166° |
| 2026-04-23 08:20 | 31.91417 | 118.66311 | 9440 ft | 302 kts | 166° |
| 2026-04-23 08:20 | 31.89400 | 118.66757 | 9080 ft | 289 kts | 166° |
| 2026-04-23 08:21 | 31.87470 | 118.67184 | 8728 ft | 274 kts | 166° |
| 2026-04-23 08:21 | 31.85652 | 118.67583 | 8400 ft | 260 kts | 166° |
| 2026-04-23 08:21 | 31.83891 | 118.67966 | 8066 ft | 247 kts | 165° |
| 2026-04-23 08:21 | 31.82231 | 118.68336 | 7916 ft | 244 kts | 165° |
| 2026-04-23 08:22 | 31.80543 | 118.68710 | 7826 ft | 243 kts | 165° |
| 2026-04-23 08:22 | 31.78887 | 118.69080 | 7760 ft | 243 kts | 165° |
| 2026-04-23 08:22 | 31.77221 | 118.69398 | 7661 ft | 245 kts | 176° |
| 2026-04-23 08:22 | 31.75581 | 118.68878 | 7444 ft | 245 kts | 216° |
| 2026-04-23 08:23 | 31.74507 | 118.67382 | 7232 ft | 240 kts | 240° |
| 2026-04-23 08:23 | 31.73710 | 118.65693 | 7073 ft | 231 kts | 242° |
| 2026-04-23 08:23 | 31.72956 | 118.64078 | 6853 ft | 224 kts | 241° |
| 2026-04-23 08:23 | 31.72186 | 118.62519 | 6590 ft | 218 kts | 239° |
| 2026-04-23 08:24 | 31.71411 | 118.61017 | 6336 ft | 217 kts | 238° |
| 2026-04-23 08:24 | 31.70613 | 118.59509 | 6069 ft | 216 kts | 238° |
| 2026-04-23 08:24 | 31.69813 | 118.58015 | 5826 ft | 214 kts | 237° |
| 2026-04-23 08:24 | 31.69019 | 118.56537 | 5588 ft | 213 kts | 237° |
| 2026-04-23 08:25 | 31.68074 | 118.55229 | 5333 ft | 209 kts | 212° |
| 2026-04-23 08:25 | 31.66737 | 118.54745 | 5078 ft | 200 kts | 175° |
| 2026-04-23 08:25 | 31.65430 | 118.55168 | 4848 ft | 191 kts | 146° |
| 2026-04-23 08:25 | 31.64320 | 118.56008 | 4635 ft | 190 kts | 141° |
| 2026-04-23 08:26 | 31.63222 | 118.56866 | 4385 ft | 189 kts | 142° |
| 2026-04-23 08:26 | 31.62125 | 118.57707 | 4157 ft | 188 kts | 142° |
| 2026-04-23 08:26 | 31.61041 | 118.58545 | 3996 ft | 185 kts | 137° |
| 2026-04-23 08:26 | 31.60356 | 118.59754 | 3943 ft | 178 kts | 101° |
| 2026-04-23 08:27 | 31.60416 | 118.61171 | 3779 ft | 177 kts | 71° |
| 2026-04-23 08:27 | 31.60865 | 118.62512 | 3547 ft | 176 kts | 68° |
| 2026-04-23 08:27 | 31.61316 | 118.63829 | 3289 ft | 175 kts | 69° |
| 2026-04-23 08:27 | 31.61707 | 118.65190 | 3055 ft | 175 kts | 75° |
| 2026-04-23 08:28 | 31.62016 | 118.66573 | 2853 ft | 174 kts | 72° |
| 2026-04-23 08:28 | 31.62454 | 118.67886 | 2676 ft | 174 kts | 65° |
| 2026-04-23 08:28 | 31.63021 | 118.69154 | 2503 ft | 174 kts | 60° |
| 2026-04-23 08:28 | 31.63650 | 118.70375 | 2405 ft | 174 kts | 59° |
| 2026-04-23 08:29 | 31.64295 | 118.71580 | 2428 ft | 175 kts | 58° |
| 2026-04-23 08:29 | 31.64940 | 118.72784 | 2391 ft | 175 kts | 58° |
| 2026-04-23 08:29 | 31.65565 | 118.73953 | 2178 ft | 162 kts | 59° |
| 2026-04-23 08:29 | 31.66132 | 118.75014 | 1981 ft | 146 kts | 59° |
| 2026-04-23 08:30 | 31.66649 | 118.75986 | 1764 ft | 133 kts | 59° |
| 2026-04-23 08:30 | 31.67127 | 118.76881 | 1593 ft | 129 kts | 59° |
| 2026-04-23 08:30 | 31.67600 | 118.77782 | 1437 ft | 129 kts | 59° |
| 2026-04-23 08:30 | 31.68076 | 118.78670 | 1292 ft | 128 kts | 59° |
| 2026-04-23 08:31 | 31.68550 | 118.79559 | 1107 ft | 128 kts | 60° |
| 2026-04-23 08:31 | 31.69014 | 118.80433 | 916 ft | 127 kts | 59° |
| 2026-04-23 08:31 | 31.69496 | 118.81320 | 739 ft | 127 kts | 59° |
| 2026-04-23 08:31 | 31.69959 | 118.82201 | 575 ft | 127 kts | 60° |
| 2026-04-23 08:32 | 31.70425 | 118.83067 | 430 ft | 127 kts | 60° |
| 2026-04-23 08:32 | 31.70896 | 118.83946 | 262 ft | 127 kts | 60° |
| 2026-04-23 08:32 | 31.71362 | 118.84826 | 101 ft | 125 kts | 60° |
| 2026-04-23 08:32 | 31.71803 | 118.85651 | 57 ft | 107 kts | 60° |
| 2026-04-23 08:33 | 31.72103 | 118.86221 | 57 ft | 57 kts | 58° |
| 2026-04-23 08:33 | 31.72256 | 118.86498 | 57 ft | 33 kts | 49° |
| 2026-04-23 08:33 | 31.72400 | 118.86663 | 57 ft | 25 kts | 33° |
| 2026-04-23 08:33 | 31.72530 | 118.86749 | 57 ft | 15 kts | 11° |
| 2026-04-23 08:34 | 31.72625 | 118.86695 | 57 ft | 15 kts | 327° |
| 2026-04-23 08:34 | 31.72721 | 118.86627 | 57 ft | 16 kts | 330° |
| 2026-04-23 08:34 | 31.72822 | 118.86554 | 57 ft | 17 kts | 326° |
| 2026-04-23 08:34 | 31.72921 | 118.86479 | 57 ft | 15 kts | 328° |
| 2026-04-23 08:35 | 31.72979 | 118.86475 | 57 ft | 8 kts | 54° |
| 2026-04-23 08:35 | 31.73010 | 118.86533 | 57 ft | 5 kts | 59° |
| 2026-04-23 08:35 | 31.72998 | 118.86569 | 57 ft | 5 kts | 150° |
| 2026-04-23 08:35 | 31.72979 | 118.86583 | 57 ft | 0 kts | 149° |
| 2026-04-23 08:36 | 31.72974 | 118.86586 | 57 ft | 0 kts | 147° |